createdAt,value
2023-12-13T00:00:28.405Z,20.60
2023-12-13T00:02:55.090Z,19.25
2023-12-13T00:05:21.840Z,21.95
2023-12-13T00:07:48.526Z,21.52
2023-12-13T00:10:15.590Z,24.27
2023-12-13T00:15:09.598Z,21.45
2023-12-13T00:17:37.043Z,23.63
2023-12-13T00:20:06.490Z,20.75
2023-12-13T00:22:34.222Z,20.55
2023-12-13T00:25:01.213Z,16.92
2023-12-13T00:27:28.095Z,16.92
2023-12-13T00:29:54.773Z,17.90
2023-12-13T00:32:22.472Z,18.63
2023-12-13T00:34:49.568Z,19.85
2023-12-13T00:37:16.441Z,21.33
2023-12-13T00:39:43.386Z,21.13
2023-12-13T00:42:10.183Z,18.67
2023-12-13T00:44:37.827Z,18.88
2023-12-13T00:47:04.978Z,19.50
2023-12-13T00:51:58.384Z,18.95
2023-12-13T00:54:26.156Z,18.13
2023-12-13T00:56:52.860Z,18.73
2023-12-13T00:59:19.560Z,17.88
2023-12-13T01:01:47.390Z,16.38
2023-12-13T01:04:14.319Z,21.77
2023-12-13T01:09:09.366Z,18.58
2023-12-13T01:11:38.650Z,18.05
2023-12-13T01:14:07.032Z,18.27
2023-12-13T01:16:34.581Z,17.88
2023-12-13T01:19:01.815Z,16.15
2023-12-13T01:21:29.890Z,17.40
2023-12-13T01:23:56.773Z,16.60
2023-12-13T01:26:23.506Z,16.17
2023-12-13T01:28:50.310Z,15.60
2023-12-13T01:31:18.531Z,15.05
2023-12-13T01:33:45.442Z,14.43
2023-12-13T01:36:12.253Z,12.80
2023-12-13T01:38:39.411Z,14.60
2023-12-13T01:43:45.507Z,10.75
2023-12-13T01:46:17.637Z,10.68
2023-12-13T01:48:45.962Z,12.27
2023-12-13T01:51:13.084Z,9.52
2023-12-13T01:56:08.860Z,11.52
2023-12-13T01:58:40.435Z,10.88
2023-12-13T02:01:08.978Z,13.50
2023-12-13T02:03:39.474Z,9.80
2023-12-13T02:08:34.256Z,10.13
2023-12-13T02:11:00.989Z,7.47
2023-12-13T02:13:27.718Z,8.43
2023-12-13T02:15:54.373Z,11.25
2023-12-13T02:18:21.218Z,8.85
2023-12-13T02:20:49.823Z,9.20
2023-12-13T02:23:16.513Z,7.85
2023-12-13T02:25:55.903Z,8.85
2023-12-13T02:28:25.075Z,8.63
2023-12-13T02:30:53.768Z,8.70
2023-12-13T02:33:26.511Z,7.60
2023-12-13T02:36:01.779Z,8.33
2023-12-13T02:38:28.399Z,8.50
2023-12-13T02:40:55.229Z,5.97
2023-12-13T02:43:22.311Z,6.68
2023-12-13T02:48:15.914Z,6.43
2023-12-13T02:50:42.823Z,6.90
2023-12-13T02:53:09.661Z,6.97
2023-12-13T02:55:36.430Z,7.03
2023-12-13T02:58:03.353Z,6.05
2023-12-13T03:00:29.982Z,7.93
2023-12-13T03:03:00.107Z,6.88
2023-12-13T03:05:26.874Z,5.50
2023-12-13T03:07:53.723Z,8.80
2023-12-13T03:10:21.079Z,6.75
2023-12-13T03:12:47.874Z,7.17
2023-12-13T03:15:14.579Z,6.78
2023-12-13T03:17:41.360Z,9.05
2023-12-13T03:20:09.905Z,6.68
2023-12-13T03:22:36.955Z,5.97
2023-12-13T03:25:03.786Z,8.43
2023-12-13T03:27:30.493Z,8.15
2023-12-13T03:29:57.245Z,6.88
2023-12-13T03:32:23.910Z,6.15
2023-12-13T03:34:50.587Z,5.82
2023-12-13T03:37:17.290Z,6.80
2023-12-13T03:39:44.003Z,5.45
2023-12-13T03:42:10.568Z,7.13
2023-12-13T03:44:37.152Z,6.35
2023-12-13T03:47:04.404Z,5.75
2023-12-13T03:49:31.305Z,7.68
2023-12-13T03:51:59.281Z,6.47
2023-12-13T03:54:25.961Z,5.75
2023-12-13T03:56:52.611Z,8.32
2023-12-13T03:59:19.237Z,8.57
2023-12-13T04:01:45.929Z,6.25
2023-12-13T04:04:12.717Z,6.70
2023-12-13T04:06:39.505Z,5.57
2023-12-13T04:09:06.138Z,5.50
2023-12-13T04:11:32.873Z,7.60
2023-12-13T04:13:59.534Z,5.72
2023-12-13T04:16:27.426Z,5.57
2023-12-13T04:18:54.144Z,6.80
2023-12-13T04:21:20.934Z,6.00
2023-12-13T04:23:47.666Z,7.15
2023-12-13T04:30:01.696Z,7.82
2023-12-13T04:32:28.841Z,6.25
2023-12-13T04:34:55.593Z,7.05
2023-12-13T04:37:22.309Z,6.25
2023-12-13T04:39:48.871Z,6.32
2023-12-13T04:42:15.578Z,7.90
2023-12-13T04:44:42.145Z,8.18
2023-12-13T04:47:08.853Z,5.72
2023-12-13T04:49:35.473Z,6.97
2023-12-13T04:52:02.130Z,7.50
2023-12-13T04:54:28.750Z,6.50
2023-12-13T04:56:55.411Z,7.28
2023-12-13T04:59:22.137Z,7.05
2023-12-13T05:01:48.937Z,6.38
2023-12-13T05:04:15.654Z,6.28
2023-12-13T05:06:42.477Z,7.22
2023-12-13T05:09:09.220Z,7.65
2023-12-13T05:11:35.886Z,7.90
2023-12-13T05:14:02.522Z,7.47
2023-12-13T05:16:29.125Z,7.38
2023-12-13T05:18:55.851Z,6.95
2023-12-13T05:21:22.764Z,7.32
2023-12-13T05:23:49.410Z,7.70
2023-12-13T05:26:16.061Z,10.23
2023-12-13T05:28:42.931Z,8.15
2023-12-13T05:31:21.580Z,8.90
2023-12-13T05:33:49.397Z,6.70
2023-12-13T05:36:16.316Z,6.83
2023-12-13T05:38:44.620Z,8.40
2023-12-13T05:41:11.277Z,5.80
2023-12-13T05:43:37.923Z,8.73
2023-12-13T05:46:08.809Z,8.02
2023-12-13T05:48:35.545Z,9.02
2023-12-13T05:51:02.167Z,9.40
2023-12-13T05:53:29.421Z,8.57
2023-12-13T05:55:56.065Z,11.77
2023-12-13T05:58:22.943Z,9.68
2023-12-13T06:00:49.649Z,9.20
2023-12-13T06:03:16.412Z,9.25
2023-12-13T06:05:43.500Z,7.47
2023-12-13T06:10:36.996Z,12.63
2023-12-13T06:13:03.760Z,9.65
2023-12-13T06:15:30.510Z,11.95
2023-12-13T06:17:57.296Z,12.05
2023-12-13T06:20:23.976Z,11.85
2023-12-13T06:22:50.678Z,9.30
2023-12-13T06:25:17.653Z,9.77
2023-12-13T06:27:44.248Z,13.98
2023-12-13T06:30:11.839Z,11.80
2023-12-13T06:32:38.643Z,10.53
2023-12-13T06:35:05.947Z,10.82
2023-12-13T06:37:32.925Z,10.60
2023-12-13T06:42:29.800Z,11.30
2023-12-13T06:44:56.691Z,11.40
2023-12-13T06:47:23.341Z,10.20
2023-12-13T06:49:50.044Z,13.27
2023-12-13T06:52:16.803Z,12.27
2023-12-13T06:54:43.579Z,9.68
2023-12-13T06:57:10.581Z,11.20
2023-12-13T06:59:37.212Z,13.05
2023-12-13T07:02:04.217Z,11.82
2023-12-13T07:04:32.449Z,11.07
2023-12-13T07:07:00.115Z,10.80
2023-12-13T07:09:26.892Z,9.93
2023-12-13T07:11:53.485Z,12.40
2023-12-13T07:14:20.194Z,8.73
2023-12-13T07:16:47.062Z,11.27
2023-12-13T07:19:14.513Z,9.05
2023-12-13T07:21:41.240Z,11.60
2023-12-13T07:24:07.961Z,12.82
2023-12-13T07:26:34.656Z,9.38
2023-12-13T07:29:02.264Z,12.98
2023-12-13T07:31:29.114Z,10.77
2023-12-13T07:33:56.618Z,10.15
2023-12-13T07:36:24.729Z,9.13
2023-12-13T07:38:51.378Z,11.85
2023-12-13T07:41:17.941Z,13.25
2023-12-13T07:43:44.682Z,10.02
2023-12-13T07:46:11.462Z,11.93
2023-12-13T07:48:40.981Z,8.05
2023-12-13T07:51:07.910Z,8.50
2023-12-13T07:53:34.600Z,9.02
2023-12-13T07:56:01.575Z,10.40
2023-12-13T08:00:54.940Z,10.63
2023-12-13T08:03:21.675Z,10.57
2023-12-13T08:05:48.312Z,10.35
2023-12-13T08:08:16.898Z,13.70
2023-12-13T08:10:44.812Z,11.23
2023-12-13T08:13:11.546Z,10.88
2023-12-13T08:15:38.238Z,10.00
2023-12-13T08:18:04.913Z,10.25
2023-12-13T08:20:31.773Z,9.88
2023-12-13T08:22:58.806Z,10.45
2023-12-13T08:27:52.433Z,12.60
2023-12-13T08:30:20.178Z,14.48
2023-12-13T08:32:47.013Z,14.05
2023-12-13T08:35:13.867Z,10.57
2023-12-13T08:37:40.641Z,12.52
2023-12-13T08:40:07.930Z,17.08
2023-12-13T08:42:39.960Z,10.88
2023-12-13T08:45:11.847Z,11.90
2023-12-13T08:47:38.912Z,12.07
2023-12-13T08:52:32.802Z,12.40
2023-12-13T08:54:59.478Z,11.90
2023-12-13T08:57:26.119Z,13.70
2023-12-13T08:59:59.235Z,15.13
2023-12-13T09:02:33.209Z,13.60
2023-12-13T09:04:59.872Z,16.05
2023-12-13T09:07:26.624Z,12.98
2023-12-13T09:09:53.266Z,15.15
2023-12-13T09:12:19.942Z,12.80
2023-12-13T09:14:46.520Z,14.02
2023-12-13T09:17:13.255Z,12.05
2023-12-13T09:19:39.865Z,14.70
2023-12-13T09:22:06.545Z,12.73
2023-12-13T09:24:33.348Z,10.40
2023-12-13T09:27:00.000Z,10.52
2023-12-13T09:29:26.599Z,14.52
2023-12-13T09:31:53.287Z,14.65
2023-12-13T09:34:22.481Z,12.57
2023-12-13T09:36:49.432Z,13.60
2023-12-13T09:39:17.280Z,11.77
2023-12-13T09:42:05.606Z,15.85
2023-12-13T09:47:03.514Z,12.93
2023-12-13T09:49:37.713Z,10.07
2023-12-13T09:52:10.330Z,11.70
2023-12-13T09:54:42.139Z,12.27
2023-12-13T09:57:08.864Z,11.15
2023-12-13T09:59:37.847Z,10.57
2023-12-13T10:02:09.913Z,10.77
2023-12-13T10:04:37.390Z,11.95
2023-12-13T10:07:06.171Z,10.18
2023-12-13T10:09:33.810Z,10.88
2023-12-13T10:12:00.751Z,7.65
2023-12-13T10:14:27.806Z,9.00
2023-12-13T10:19:38.783Z,9.68
2023-12-13T10:22:08.253Z,9.85
2023-12-13T10:24:35.565Z,6.47
2023-12-13T10:27:02.539Z,9.47
2023-12-13T10:29:30.835Z,11.90
2023-12-13T10:31:58.637Z,11.50
2023-12-13T10:34:25.332Z,11.07
2023-12-13T10:36:52.224Z,7.55
2023-12-13T10:39:22.369Z,9.15
2023-12-13T10:41:51.968Z,8.73
2023-12-13T10:44:23.154Z,7.53
2023-12-13T10:46:57.453Z,9.57
2023-12-13T10:49:25.723Z,9.90
2023-12-13T10:51:53.919Z,7.80
2023-12-13T10:54:21.054Z,6.45
2023-12-13T10:59:16.496Z,8.50
2023-12-13T11:01:44.256Z,7.22
2023-12-13T11:04:18.312Z,6.72
2023-12-13T11:06:47.852Z,7.38
2023-12-13T11:09:18.349Z,8.77
2023-12-13T11:11:46.000Z,10.65
2023-12-13T11:14:16.724Z,6.70
2023-12-13T11:16:47.673Z,6.78
2023-12-13T11:19:19.775Z,5.60
2023-12-13T11:21:47.957Z,5.15
2023-12-13T11:24:26.773Z,5.63
2023-12-13T11:26:55.244Z,6.20
2023-12-13T11:29:28.690Z,6.75
2023-12-13T11:32:00.378Z,6.40
2023-12-13T11:34:33.661Z,6.25
2023-12-13T11:37:05.366Z,6.05
2023-12-13T11:39:33.783Z,4.38
2023-12-13T11:42:04.060Z,5.67
2023-12-13T11:44:32.989Z,5.60
2023-12-13T11:47:01.735Z,4.45
2023-12-13T11:49:28.517Z,5.22
2023-12-13T11:51:55.408Z,4.78
2023-12-13T11:54:22.184Z,7.93
2023-12-13T11:56:48.926Z,4.93
2023-12-13T11:59:16.127Z,5.30
2023-12-13T12:01:43.003Z,5.90
2023-12-13T12:04:10.088Z,5.35
2023-12-13T12:09:04.594Z,4.80
2023-12-13T12:11:31.192Z,4.13
2023-12-13T12:13:58.126Z,7.13
2023-12-13T12:16:25.018Z,4.65
2023-12-13T12:18:53.954Z,4.82
2023-12-13T12:21:20.904Z,4.57
2023-12-13T12:23:47.564Z,6.28
2023-12-13T12:26:14.602Z,7.65
2023-12-13T12:31:10.986Z,5.03
2023-12-13T12:33:40.356Z,3.70
2023-12-13T12:36:08.549Z,4.78
2023-12-13T12:38:35.643Z,5.30
2023-12-13T12:43:28.931Z,5.67
2023-12-13T12:45:55.629Z,4.93
2023-12-13T12:48:22.330Z,4.97
2023-12-13T12:50:50.412Z,4.43
2023-12-13T12:53:17.162Z,5.03
2023-12-13T12:55:45.886Z,7.00
2023-12-13T12:58:12.520Z,4.63
2023-12-13T13:00:39.135Z,7.85
2023-12-13T13:03:07.967Z,8.30
2023-12-13T13:05:35.788Z,4.73
2023-12-13T13:08:03.540Z,5.13
2023-12-13T13:10:30.825Z,7.77
2023-12-13T13:12:57.602Z,3.95
2023-12-13T13:15:24.784Z,6.00
2023-12-13T13:17:52.162Z,4.70
2023-12-13T13:20:19.438Z,3.90
2023-12-13T13:22:46.671Z,4.32
2023-12-13T13:25:14.764Z,4.00
2023-12-13T13:27:41.737Z,3.63
2023-12-13T13:32:36.095Z,3.28
2023-12-13T13:35:03.075Z,3.70
2023-12-13T13:37:29.930Z,5.50
2023-12-13T13:39:56.740Z,4.97
2023-12-13T13:42:25.011Z,5.70
2023-12-13T13:44:51.695Z,2.92
2023-12-13T13:47:18.240Z,3.75
2023-12-13T13:49:45.407Z,3.90
2023-12-13T13:52:12.212Z,3.10
2023-12-13T13:54:38.841Z,5.40
2023-12-13T13:57:05.924Z,5.85
2023-12-13T14:01:59.360Z,4.93
2023-12-13T14:04:26.204Z,3.60
2023-12-13T14:06:53.095Z,6.20
2023-12-13T14:09:20.434Z,4.78
2023-12-13T14:11:47.192Z,4.10
2023-12-13T14:14:13.823Z,4.90
2023-12-13T14:16:40.491Z,5.18
2023-12-13T14:19:07.499Z,4.40
2023-12-13T14:21:35.078Z,4.45
2023-12-13T14:24:03.468Z,4.00
2023-12-13T14:26:31.205Z,4.47
2023-12-13T14:28:58.126Z,6.95
2023-12-13T14:31:25.260Z,4.60
2023-12-13T14:36:19.519Z,7.25
2023-12-13T14:38:48.079Z,5.70
2023-12-13T14:41:15.125Z,3.80
2023-12-13T14:46:09.755Z,3.90
2023-12-13T14:48:36.952Z,5.43
2023-12-13T14:51:04.024Z,4.87
2023-12-13T14:53:30.667Z,3.65
2023-12-13T14:55:57.515Z,5.25
2023-12-13T14:58:24.145Z,3.67
2023-12-13T15:00:51.012Z,2.92
2023-12-13T15:03:17.937Z,3.22
2023-12-13T15:05:45.879Z,4.38
2023-12-13T15:08:12.777Z,3.10
2023-12-13T15:10:39.556Z,4.50
2023-12-13T15:13:08.833Z,4.28
2023-12-13T15:15:35.814Z,3.07
2023-12-13T15:18:02.480Z,3.78
2023-12-13T15:20:31.121Z,3.47
2023-12-13T15:22:57.997Z,3.60
2023-12-13T15:25:25.103Z,5.22
2023-12-13T15:30:18.299Z,6.27
2023-12-13T15:32:45.934Z,5.85
2023-12-13T15:35:13.084Z,5.30
2023-12-13T15:40:08.792Z,4.17
2023-12-13T15:42:35.388Z,4.50
2023-12-13T15:45:02.072Z,4.22
2023-12-13T15:47:29.312Z,2.92
2023-12-13T15:49:56.323Z,3.23
2023-12-13T15:52:23.148Z,3.65
2023-12-13T15:54:50.370Z,4.80
2023-12-13T15:59:43.483Z,4.33
2023-12-13T16:02:10.196Z,4.20
2023-12-13T16:04:36.933Z,4.57
2023-12-13T16:07:04.746Z,5.50
2023-12-13T16:09:31.415Z,6.50
2023-12-13T16:11:58.047Z,6.00
2023-12-13T16:14:26.122Z,5.85
2023-12-13T16:16:54.089Z,6.40
2023-12-13T16:19:21.202Z,7.63
2023-12-13T16:24:14.650Z,7.83
2023-12-13T16:26:41.333Z,5.05
2023-12-13T16:29:14.211Z,6.95
2023-12-13T16:31:48.996Z,6.60
2023-12-13T16:34:15.818Z,5.60
2023-12-13T16:36:44.723Z,7.93
2023-12-13T16:39:12.015Z,6.77
2023-12-13T16:41:38.786Z,8.95
2023-12-13T16:44:05.567Z,6.22
2023-12-13T16:46:32.246Z,8.20
2023-12-13T16:48:59.086Z,5.78
2023-12-13T16:51:26.628Z,7.00
2023-12-13T16:53:53.331Z,6.83
2023-12-13T16:56:20.027Z,7.82
2023-12-13T16:58:46.810Z,6.25
2023-12-13T17:01:13.564Z,5.65
2023-12-13T17:03:41.505Z,93.60
2023-12-13T17:06:08.547Z,82.47
2023-12-13T17:08:35.354Z,54.35
2023-12-13T17:11:02.435Z,61.70
2023-12-13T17:13:29.582Z,16.97
2023-12-13T17:15:56.349Z,27.85
2023-12-13T17:18:24.765Z,15.88
2023-12-13T17:20:51.837Z,10.57
2023-12-13T17:25:46.536Z,17.97
2023-12-13T17:28:13.428Z,17.13
2023-12-13T17:30:40.317Z,28.58
2023-12-13T17:33:07.157Z,15.70
2023-12-13T17:35:34.332Z,83.93
2023-12-13T17:40:27.890Z,9.50
2023-12-13T17:42:54.671Z,7.60
2023-12-13T17:45:21.446Z,11.88
2023-12-13T17:47:48.414Z,11.60
2023-12-13T17:52:43.089Z,7.32
2023-12-13T17:55:09.896Z,8.07
2023-12-13T17:57:36.626Z,9.05
2023-12-13T18:00:04.771Z,7.95
2023-12-13T18:02:31.577Z,8.83
2023-12-13T18:05:00.911Z,8.05
2023-12-13T18:07:27.804Z,9.90
2023-12-13T18:09:54.610Z,7.95
2023-12-13T18:12:21.434Z,8.02
2023-12-13T18:14:48.190Z,8.52
2023-12-13T18:17:14.854Z,6.32
2023-12-13T18:19:41.712Z,7.43
2023-12-13T18:22:11.049Z,6.00
2023-12-13T18:24:37.765Z,4.70
2023-12-13T18:27:04.633Z,5.95
2023-12-13T18:29:32.351Z,5.88
2023-12-13T18:31:59.189Z,5.47
2023-12-13T18:34:26.090Z,5.25
2023-12-13T18:36:53.158Z,5.32
2023-12-13T18:39:21.499Z,7.28
2023-12-13T18:41:50.331Z,5.73
2023-12-13T18:44:17.114Z,7.17
2023-12-13T18:46:43.881Z,7.35
2023-12-13T18:49:11.817Z,6.20
2023-12-13T18:51:38.521Z,5.75
2023-12-13T18:54:05.199Z,9.77
2023-12-13T18:56:31.805Z,7.22
2023-12-13T18:58:58.641Z,9.27
2023-12-13T19:01:25.361Z,8.65
2023-12-13T19:03:52.281Z,9.57
2023-12-13T19:06:19.999Z,6.70
2023-12-13T19:08:46.734Z,8.93
2023-12-13T19:11:13.543Z,7.78
2023-12-13T19:13:40.190Z,8.23
2023-12-13T19:16:07.330Z,7.65
2023-12-13T19:21:04.261Z,10.07
2023-12-13T19:23:30.938Z,8.55
2023-12-13T19:25:58.895Z,8.90
2023-12-13T19:28:25.639Z,10.70
2023-12-13T19:30:52.513Z,8.48
2023-12-13T19:33:19.142Z,8.75
2023-12-13T19:35:45.825Z,7.18
2023-12-13T19:38:12.692Z,9.07
2023-12-13T19:40:39.427Z,10.23
2023-12-13T19:43:07.609Z,8.15
2023-12-13T19:45:34.372Z,7.50
2023-12-13T19:48:01.304Z,6.60
2023-12-13T19:50:28.036Z,8.88
2023-12-13T19:52:54.864Z,6.30
2023-12-13T19:55:21.571Z,7.22
2023-12-13T19:57:48.421Z,6.82
2023-12-13T20:00:15.551Z,7.97
2023-12-13T20:02:42.284Z,7.30
2023-12-13T20:05:09.341Z,10.27
2023-12-13T20:07:36.476Z,8.33
2023-12-13T20:12:30.089Z,7.83
2023-12-13T20:14:56.846Z,10.77
2023-12-13T20:17:23.643Z,10.73
2023-12-13T20:19:50.405Z,7.97
2023-12-13T20:22:17.147Z,10.63
2023-12-13T20:24:43.914Z,8.60
2023-12-13T20:27:10.609Z,9.43
2023-12-13T20:29:37.367Z,8.32
2023-12-13T20:32:04.473Z,6.78
2023-12-13T20:36:57.960Z,5.43
2023-12-13T20:39:24.624Z,5.50
2023-12-13T20:41:51.448Z,9.70
2023-12-13T20:44:18.215Z,6.72
2023-12-13T20:46:44.972Z,8.15
2023-12-13T20:49:12.194Z,6.82
2023-12-13T20:51:39.897Z,7.57
2023-12-13T20:54:07.360Z,6.40
2023-12-13T20:56:34.204Z,6.97
2023-12-13T20:59:01.136Z,9.00
2023-12-13T21:01:27.957Z,7.65
2023-12-13T21:03:54.755Z,7.40
2023-12-13T21:06:24.182Z,7.25
2023-12-13T21:08:50.973Z,7.30
2023-12-13T21:11:17.965Z,5.85
2023-12-13T21:16:11.446Z,8.40
2023-12-13T21:18:38.163Z,6.00
2023-12-13T21:21:05.252Z,6.72
2023-12-13T21:25:59.728Z,7.20
2023-12-13T21:28:26.575Z,5.93
2023-12-13T21:30:53.435Z,5.30
2023-12-13T21:33:20.303Z,6.50
2023-12-13T21:35:49.883Z,5.63
2023-12-13T21:38:17.077Z,5.87
2023-12-13T21:40:43.757Z,6.80
2023-12-13T21:43:10.827Z,5.53
2023-12-13T21:48:06.938Z,8.67
2023-12-13T21:50:36.057Z,5.30
2023-12-13T21:53:02.818Z,8.63
2023-12-13T21:55:29.760Z,8.15
2023-12-13T21:57:56.548Z,4.55
2023-12-13T22:00:23.359Z,7.53
2023-12-13T22:02:50.099Z,6.93
2023-12-13T22:05:16.984Z,5.35
2023-12-13T22:07:43.717Z,5.90
2023-12-13T22:10:11.008Z,3.75
2023-12-13T22:12:37.688Z,4.53
2023-12-13T22:15:05.618Z,8.07
2023-12-13T22:17:36.902Z,6.53
2023-12-13T22:20:16.866Z,5.00
2023-12-13T22:22:44.613Z,5.23
2023-12-13T22:25:20.416Z,5.63
2023-12-13T22:27:47.078Z,6.57
2023-12-13T22:30:13.949Z,7.43
2023-12-13T22:32:40.973Z,11.82
2023-12-13T22:35:10.281Z,5.63
2023-12-13T22:37:38.637Z,4.87
2023-12-13T22:40:06.262Z,8.10
2023-12-13T22:42:33.445Z,5.53
2023-12-13T22:45:00.316Z,6.97
2023-12-13T22:47:27.198Z,4.80
2023-12-13T22:52:24.228Z,6.43
2023-12-13T22:54:51.343Z,7.43
2023-12-13T22:57:18.096Z,7.35
2023-12-13T22:59:44.764Z,3.60
2023-12-13T23:02:11.460Z,7.10
2023-12-13T23:04:40.478Z,5.10
2023-12-13T23:07:07.117Z,4.63
2023-12-13T23:09:33.784Z,6.72
2023-12-13T23:12:00.413Z,5.72
2023-12-13T23:14:27.038Z,4.10
2023-12-13T23:16:53.742Z,4.80
2023-12-13T23:19:20.982Z,5.27
2023-12-13T23:21:47.860Z,12.13
2023-12-13T23:24:14.711Z,5.47
2023-12-13T23:26:41.333Z,3.80
2023-12-13T23:29:08.557Z,2.97
2023-12-13T23:31:41.387Z,9.37
2023-12-13T23:34:08.840Z,6.20
2023-12-13T23:36:35.532Z,6.95
2023-12-13T23:39:02.206Z,6.43
2023-12-13T23:41:28.907Z,6.55
2023-12-13T23:43:55.560Z,2.75
2023-12-13T23:46:22.320Z,4.43
2023-12-13T23:48:49.326Z,2.72
2023-12-13T23:53:42.764Z,4.43
2023-12-13T23:56:23.712Z,3.20
2023-12-13T23:58:51.399Z,3.57
